createdAt,value
2022-12-26T00:01:09.394Z,100479.41
2022-12-26T00:03:37.054Z,100485.47
2022-12-26T00:06:05.471Z,100486.28
2022-12-26T00:08:32.860Z,100490.63
2022-12-26T00:11:01.587Z,100488.09
2022-12-26T00:13:39.305Z,100471.59
2022-12-26T00:16:10.488Z,100484.66
2022-12-26T00:18:38.157Z,100474.97
2022-12-26T00:21:05.874Z,100472.56
2022-12-26T00:23:33.701Z,100461.38
2022-12-26T00:26:05.099Z,100458.06
2022-12-26T00:28:32.763Z,100457.16
2022-12-26T00:31:03.729Z,100449.28
2022-12-26T00:33:31.213Z,100454.53
2022-12-26T00:36:02.040Z,100457.06
2022-12-26T00:38:29.445Z,100462.34
2022-12-26T00:40:56.886Z,100453.75
2022-12-26T00:43:25.616Z,100457.97
2022-12-26T00:45:53.247Z,100446.00
2022-12-26T00:48:20.643Z,100439.97
2022-12-26T00:50:48.050Z,100427.88
2022-12-26T00:53:15.452Z,100434.84
2022-12-26T00:55:43.063Z,100433.13
2022-12-26T00:58:10.626Z,100439.13
2022-12-26T01:00:39.744Z,100437.41
2022-12-26T01:03:08.749Z,100421.94
2022-12-26T01:05:36.443Z,100418.50
2022-12-26T01:08:21.526Z,100405.59
2022-12-26T01:10:51.522Z,100402.16
2022-12-26T01:13:18.955Z,100413.28
2022-12-26T01:15:50.965Z,100420.06
2022-12-26T01:18:19.049Z,100414.19
2022-12-26T01:20:46.598Z,100403.03
2022-12-26T01:23:14.367Z,100392.69
2022-12-26T01:26:17.406Z,100403.88
2022-12-26T01:28:29.327Z,100414.19
2022-12-26T01:31:02.402Z,100418.50
2022-12-26T01:33:29.816Z,100420.19
2022-12-26T01:35:57.652Z,100417.63
2022-12-26T01:38:25.098Z,100404.75
2022-12-26T01:41:12.544Z,100409.03
2022-12-26T01:43:49.341Z,100394.34
2022-12-26T01:46:20.587Z,100397.00
2022-12-26T01:48:48.580Z,100390.09
2022-12-26T01:51:17.490Z,100392.69
2022-12-26T01:53:48.929Z,100392.69
2022-12-26T01:56:21.121Z,100394.41
2022-12-26T01:58:53.997Z,100386.66
2022-12-26T02:01:26.555Z,100392.63
2022-12-26T02:04:11.813Z,100407.19
2022-12-26T02:06:41.253Z,100392.66
2022-12-26T02:09:10.140Z,100390.03
2022-12-26T02:11:41.067Z,100397.75
2022-12-26T02:14:09.839Z,100400.97
2022-12-26T02:16:40.044Z,100397.75
2022-12-26T02:19:24.605Z,100402.91
2022-12-26T02:22:09.556Z,100400.44
2022-12-26T02:25:02.912Z,100385.81
2022-12-26T02:27:44.633Z,100390.97
2022-12-26T02:30:40.099Z,100390.13
2022-12-26T02:33:30.537Z,100384.97
2022-12-26T02:36:18.177Z,100385.81
2022-12-26T02:38:54.525Z,100379.81
2022-12-26T02:41:34.791Z,100374.63
2022-12-26T02:44:32.229Z,100381.50
2022-12-26T02:47:11.409Z,100358.28
2022-12-26T02:50:10.875Z,100363.44
2022-12-26T02:53:07.314Z,100373.75
2022-12-26T02:55:57.061Z,100376.31
2022-12-26T02:58:48.794Z,100391.81
2022-12-26T03:01:41.140Z,100380.63
2022-12-26T03:04:32.826Z,100387.53
2022-12-26T03:07:22.494Z,100385.81
2022-12-26T03:10:22.166Z,100377.22
2022-12-26T03:13:13.573Z,100384.09
2022-12-26T03:16:04.948Z,100399.56
2022-12-26T03:18:59.526Z,100394.41
2022-12-26T03:21:27.243Z,100377.19
2022-12-26T03:23:57.555Z,100373.72
2022-12-26T03:26:41.408Z,100390.97
2022-12-26T03:29:29.006Z,100392.59
2022-12-26T03:31:56.881Z,100385.81
2022-12-26T03:34:25.322Z,100392.69
2022-12-26T03:37:07.069Z,100390.13
2022-12-26T03:40:01.151Z,100390.97
2022-12-26T03:42:56.135Z,100374.59
2022-12-26T03:45:50.697Z,100379.75
2022-12-26T03:48:42.949Z,100379.75
2022-12-26T03:51:32.343Z,100388.41
2022-12-26T03:54:26.055Z,100387.53
2022-12-26T03:57:13.946Z,100389.25
2022-12-26T04:00:05.158Z,100396.13
2022-12-26T04:02:51.883Z,100391.84
2022-12-26T04:05:38.736Z,100378.03
2022-12-26T04:08:32.118Z,100392.69
2022-12-26T04:11:21.914Z,100413.34
2022-12-26T04:14:12.842Z,100424.53
2022-12-26T04:17:01.724Z,100421.03
2022-12-26T04:19:45.389Z,100409.88
2022-12-26T04:22:36.156Z,100409.81
2022-12-26T04:25:48.580Z,100409.88
2022-12-26T04:28:35.090Z,100411.63
2022-12-26T04:31:26.662Z,100401.28
2022-12-26T04:34:17.246Z,100409.03
2022-12-26T04:37:08.029Z,100405.56
2022-12-26T04:39:55.471Z,100405.59
2022-12-26T04:42:42.693Z,100424.50
2022-12-26T04:45:14.204Z,100421.06
2022-12-26T04:48:01.893Z,100424.53
2022-12-26T04:50:28.449Z,100418.50
2022-12-26T04:52:58.678Z,100420.19
2022-12-26T04:55:27.079Z,100427.09
2022-12-26T04:57:54.595Z,100421.06
2022-12-26T05:00:25.188Z,100420.22
2022-12-26T05:03:16.270Z,100417.66
2022-12-26T05:06:06.022Z,100418.50
2022-12-26T05:08:54.331Z,100436.56
2022-12-26T05:11:22.069Z,100433.13
2022-12-26T05:13:49.586Z,100419.34
2022-12-26T05:16:35.970Z,100425.34
2022-12-26T05:19:21.234Z,100431.41
2022-12-26T05:22:06.469Z,100427.94
2022-12-26T05:24:53.676Z,100441.72
2022-12-26T05:27:39.430Z,100449.47
2022-12-26T05:30:08.526Z,100448.63
2022-12-26T05:32:55.031Z,100446.03
2022-12-26T05:35:22.600Z,100446.88
2022-12-26T05:37:50.071Z,100464.06
2022-12-26T05:40:17.567Z,100452.88
2022-12-26T05:42:47.139Z,100461.50
2022-12-26T05:45:14.590Z,100459.75
2022-12-26T05:47:48.271Z,100464.97
2022-12-26T05:50:18.991Z,100464.06
2022-12-26T05:52:46.463Z,100460.56
2022-12-26T05:55:13.888Z,100470.97
2022-12-26T05:57:41.293Z,100463.25
2022-12-26T06:00:14.154Z,100468.34
2022-12-26T06:02:43.062Z,100470.00
2022-12-26T06:05:11.121Z,100468.41
2022-12-26T06:07:38.738Z,100461.53
2022-12-26T06:10:07.340Z,100466.66
2022-12-26T06:12:35.353Z,100464.97
2022-12-26T06:15:02.980Z,100470.16
2022-12-26T06:17:30.480Z,100484.75
2022-12-26T06:19:59.233Z,100479.59
2022-12-26T06:22:26.706Z,100471.84
2022-12-26T06:24:54.118Z,100460.66
2022-12-26T06:27:21.570Z,100459.81
2022-12-26T06:29:48.965Z,100461.53
2022-12-26T06:32:16.349Z,100459.81
2022-12-26T06:34:43.775Z,100466.69
2022-12-26T06:37:12.641Z,100472.72
2022-12-26T06:39:40.073Z,100484.72
2022-12-26T06:42:07.579Z,100486.47
2022-12-26T06:44:34.985Z,100497.66
2022-12-26T06:47:03.137Z,100498.53
2022-12-26T06:49:32.717Z,100504.56
2022-12-26T06:52:00.741Z,100506.28
2022-12-26T06:54:29.450Z,100508.84
2022-12-26T06:56:56.930Z,100532.09
2022-12-26T06:59:24.431Z,100531.25
2022-12-26T07:01:51.980Z,100538.16
2022-12-26T07:04:19.484Z,100527.81
2022-12-26T07:06:46.887Z,100526.94
2022-12-26T07:09:16.975Z,100532.94
2022-12-26T07:11:47.815Z,100532.91
2022-12-26T07:14:16.105Z,100522.66
2022-12-26T07:16:45.729Z,100526.94
2022-12-26T07:19:14.959Z,100523.50
2022-12-26T07:21:43.112Z,100537.28
2022-12-26T07:24:15.731Z,100523.50
2022-12-26T07:26:43.541Z,100533.81
2022-12-26T07:29:12.858Z,100527.78
2022-12-26T07:31:40.759Z,100534.69
2022-12-26T07:34:09.016Z,100525.25
2022-12-26T07:36:36.510Z,100532.09
2022-12-26T07:39:04.335Z,100529.50
2022-12-26T07:41:49.408Z,100517.47
2022-12-26T07:44:18.203Z,100516.63
2022-12-26T07:46:46.531Z,100517.44
2022-12-26T07:49:14.461Z,100532.13
2022-12-26T07:51:42.193Z,100535.56
2022-12-26T07:54:11.556Z,100542.47
2022-12-26T07:56:39.421Z,100552.78
2022-12-26T07:59:06.892Z,100558.78
2022-12-26T08:01:35.727Z,100563.13
2022-12-26T08:04:03.388Z,100570.00
2022-12-26T08:06:30.895Z,100563.13
2022-12-26T08:08:58.291Z,100561.41
2022-12-26T08:11:26.012Z,100551.91
2022-12-26T08:13:53.698Z,100552.78
2022-12-26T08:16:21.949Z,100551.91
2022-12-26T08:18:50.756Z,100552.78
2022-12-26T08:21:18.193Z,100551.91
2022-12-26T08:23:48.056Z,100549.34
2022-12-26T08:26:20.804Z,100551.06
2022-12-26T08:28:48.433Z,100544.16
2022-12-26T08:31:16.224Z,100557.06
2022-12-26T08:33:43.625Z,100568.28
2022-12-26T08:36:13.769Z,100557.94
2022-12-26T08:38:41.581Z,100557.94
2022-12-26T08:41:09.298Z,100555.38
2022-12-26T08:46:24.925Z,100566.56
2022-12-26T08:48:52.816Z,100570.84
2022-12-26T08:51:23.691Z,100568.28
2022-12-26T08:53:52.383Z,100565.69
2022-12-26T08:56:22.188Z,100570.00
2022-12-26T08:58:49.858Z,100559.69
2022-12-26T09:01:19.445Z,100564.81
2022-12-26T09:03:47.393Z,100566.56
2022-12-26T09:06:16.199Z,100579.50
2022-12-26T09:08:44.988Z,100583.78
2022-12-26T09:11:15.719Z,100596.69
2022-12-26T09:13:44.191Z,100595.84
2022-12-26T09:16:15.548Z,100595.84
2022-12-26T09:18:43.039Z,100601.88
2022-12-26T09:21:12.613Z,100604.47
2022-12-26T09:23:41.036Z,100605.34
2022-12-26T09:26:12.760Z,100612.22
2022-12-26T09:28:40.823Z,100616.50
2022-12-26T09:31:11.628Z,100602.72
2022-12-26T09:33:39.872Z,100611.38
2022-12-26T09:36:14.291Z,100614.72
2022-12-26T09:38:42.601Z,100610.50
2022-12-26T09:41:26.008Z,100601.03
2022-12-26T09:44:04.567Z,100601.88
2022-12-26T09:46:35.835Z,100592.38
2022-12-26T09:49:11.308Z,100596.72
2022-12-26T09:51:41.061Z,100609.66
2022-12-26T09:54:16.265Z,100605.34
2022-12-26T09:57:03.507Z,100600.16
2022-12-26T09:59:35.395Z,100607.00
2022-12-26T10:02:02.981Z,100608.78
2022-12-26T10:04:30.882Z,100607.91
2022-12-26T10:07:08.207Z,100616.47
2022-12-26T10:10:01.039Z,100606.22
2022-12-26T10:12:43.584Z,100622.59
2022-12-26T10:15:32.092Z,100629.44
2022-12-26T10:18:12.363Z,100638.75
2022-12-26T10:20:52.974Z,100637.19
2022-12-26T10:23:33.093Z,100639.81
2022-12-26T10:26:07.093Z,100644.09
2022-12-26T10:28:40.232Z,100641.50
2022-12-26T10:31:14.482Z,100630.31
2022-12-26T10:33:47.145Z,100634.63
2022-12-26T10:36:22.183Z,100637.22
2022-12-26T10:38:51.905Z,100629.47
2022-12-26T10:41:25.214Z,100626.88
2022-12-26T10:43:54.268Z,100616.50
2022-12-26T10:46:48.131Z,100618.88
2022-12-26T10:49:19.413Z,100608.78
2022-12-26T10:51:46.894Z,100622.53
2022-12-26T10:54:18.040Z,100623.41
2022-12-26T10:56:48.336Z,100632.91
2022-12-26T10:59:19.960Z,100639.81
2022-12-26T11:01:50.903Z,100625.03
2022-12-26T11:04:44.563Z,100626.00
2022-12-26T11:07:12.314Z,100636.34
2022-12-26T11:09:42.657Z,100642.38
2022-12-26T11:12:21.560Z,100642.38
2022-12-26T11:14:51.408Z,100631.16
2022-12-26T11:17:27.950Z,100641.50
2022-12-26T11:20:22.387Z,100641.34
2022-12-26T11:22:49.913Z,100628.56
2022-12-26T11:25:20.934Z,100631.16
2022-12-26T11:27:50.083Z,100639.78
2022-12-26T11:30:25.315Z,100636.38
2022-12-26T11:33:13.511Z,100617.34
2022-12-26T11:35:49.599Z,100613.03
2022-12-26T11:38:37.328Z,100608.63
2022-12-26T11:41:30.163Z,100622.53
2022-12-26T11:43:59.800Z,100631.16
2022-12-26T11:46:36.520Z,100626.91
2022-12-26T11:49:05.369Z,100626.88
2022-12-26T11:51:35.600Z,100632.91
2022-12-26T11:54:24.345Z,100628.53
2022-12-26T11:57:02.878Z,100637.22
2022-12-26T11:59:30.675Z,100625.94
2022-12-26T12:02:22.196Z,100626.84
2022-12-26T12:04:51.674Z,100635.50
2022-12-26T12:07:32.991Z,100638.94
2022-12-26T12:10:04.320Z,100625.16
2022-12-26T12:12:42.237Z,100633.75
2022-12-26T12:15:17.321Z,100628.59
2022-12-26T12:18:03.568Z,100616.56
2022-12-26T12:20:38.734Z,100613.03
2022-12-26T12:23:20.760Z,100617.41
2022-12-26T12:26:03.141Z,100608.50
2022-12-26T12:28:59.202Z,100602.69
2022-12-26T12:31:39.576Z,100609.66
2022-12-26T12:34:20.727Z,100617.34
2022-12-26T12:37:02.400Z,100605.31
2022-12-26T12:39:45.612Z,100587.16
2022-12-26T12:42:29.615Z,100587.22
2022-12-26T12:45:18.047Z,100590.69
2022-12-26T12:47:54.507Z,100602.72
2022-12-26T12:50:29.578Z,100609.63
2022-12-26T12:53:06.476Z,100599.31
2022-12-26T12:55:44.571Z,100606.06
2022-12-26T12:58:23.641Z,100597.44
2022-12-26T13:00:56.087Z,100601.00
2022-12-26T13:03:29.242Z,100601.00
2022-12-26T13:06:07.473Z,100595.84
2022-12-26T13:08:41.385Z,100601.00
2022-12-26T13:11:14.639Z,100597.56
2022-12-26T13:13:53.228Z,100601.91
2022-12-26T13:16:28.218Z,100593.28
2022-12-26T13:18:59.776Z,100585.50
2022-12-26T13:21:32.093Z,100602.72
2022-12-26T13:24:22.657Z,100607.91
2022-12-26T13:26:55.542Z,100606.19
2022-12-26T13:29:34.634Z,100604.50
2022-12-26T13:32:04.468Z,100607.91
2022-12-26T13:34:32.736Z,100606.22
2022-12-26T13:37:01.915Z,100606.19
2022-12-26T13:39:41.302Z,100605.31
2022-12-26T13:42:51.138Z,100605.28
2022-12-26T13:45:50.398Z,100604.44
2022-12-26T13:48:56.990Z,100602.56
2022-12-26T13:51:53.415Z,100605.25
2022-12-26T13:54:24.388Z,100610.50
2022-12-26T13:57:07.582Z,100612.16
2022-12-26T13:59:40.981Z,100611.34
2022-12-26T14:03:16.114Z,100614.75
2022-12-26T14:05:37.124Z,100625.97
2022-12-26T14:08:11.876Z,100626.66
2022-12-26T14:10:54.387Z,100623.38
2022-12-26T14:13:38.105Z,100624.28
2022-12-26T14:16:15.284Z,100630.22
2022-12-26T14:18:50.951Z,100641.41
2022-12-26T14:21:34.281Z,100633.72
2022-12-26T14:24:18.055Z,100638.03
2022-12-26T14:26:52.838Z,100633.59
2022-12-26T14:29:29.175Z,100642.16
2022-12-26T14:32:11.707Z,100641.03
2022-12-26T14:35:02.660Z,100642.06
2022-12-26T14:37:42.412Z,100639.72
2022-12-26T14:40:25.837Z,100639.59
2022-12-26T14:43:11.314Z,100636.19
2022-12-26T14:45:42.819Z,100629.88
2022-12-26T14:48:43.700Z,100640.13
2022-12-26T14:51:40.188Z,100644.50
2022-12-26T14:54:26.106Z,100638.69
2022-12-26T14:56:54.116Z,100638.00
2022-12-26T14:59:29.926Z,100631.88
2022-12-26T15:02:31.196Z,100638.81
2022-12-26T15:05:11.576Z,100632.84
2022-12-26T15:08:10.838Z,100634.59
2022-12-26T15:11:19.529Z,100631.16
2022-12-26T15:14:13.097Z,100638.91
2022-12-26T15:16:57.969Z,100639.72
2022-12-26T15:19:46.699Z,100645.78
2022-12-26T15:22:55.410Z,100643.22
2022-12-26T15:25:55.654Z,100643.22
2022-12-26T15:28:41.476Z,100634.59
2022-12-26T15:31:25.954Z,100631.16
2022-12-26T15:34:03.518Z,100621.47
2022-12-26T15:36:43.179Z,100621.63
2022-12-26T15:39:22.588Z,100618.97
2022-12-26T15:41:58.442Z,100615.59
2022-12-26T15:44:31.571Z,100617.31
2022-12-26T15:47:15.056Z,100621.66
2022-12-26T15:49:57.395Z,100621.50
2022-12-26T15:52:37.909Z,100619.03
2022-12-26T15:55:21.844Z,100610.44
2022-12-26T15:57:56.610Z,100621.66
2022-12-26T16:00:25.542Z,100619.06
2022-12-26T16:03:11.538Z,100621.66
2022-12-26T16:05:53.703Z,100621.66
2022-12-26T16:08:51.633Z,100614.75
2022-12-26T16:11:21.734Z,100621.63
2022-12-26T16:14:01.053Z,100629.28
2022-12-26T16:16:34.662Z,100624.25
2022-12-26T16:19:19.313Z,100631.00
2022-12-26T16:22:09.658Z,100628.53
2022-12-26T16:24:39.529Z,100637.16
2022-12-26T16:27:09.702Z,100621.63
2022-12-26T16:29:45.787Z,100625.94
2022-12-26T16:32:18.977Z,100626.88
2022-12-26T16:34:47.630Z,100632.72
2022-12-26T16:37:20.646Z,100629.41
2022-12-26T16:40:07.396Z,100635.31
2022-12-26T16:42:35.371Z,100638.88
2022-12-26T16:45:03.569Z,100640.59
2022-12-26T16:47:33.603Z,100642.25
2022-12-26T16:50:01.371Z,100650.63
2022-12-26T16:52:34.461Z,100654.97
2022-12-26T16:55:25.971Z,100669.75
2022-12-26T16:57:56.480Z,100675.50
2022-12-26T17:00:25.139Z,100680.22
2022-12-26T17:02:55.861Z,100682.31
2022-12-26T17:05:27.943Z,100676.59
2022-12-26T17:07:59.347Z,100686.53
2022-12-26T17:10:29.660Z,100675.31
2022-12-26T17:13:00.577Z,100681.72
2022-12-26T17:15:30.756Z,100688.47
2022-12-26T17:17:59.790Z,100691.25
2022-12-26T17:20:38.955Z,100688.78
2022-12-26T17:23:37.097Z,100683.31
2022-12-26T17:26:23.676Z,100689.34
2022-12-26T17:28:51.666Z,100698.94
2022-12-26T17:31:24.775Z,100696.94
2022-12-26T17:33:56.078Z,100703.94
2022-12-26T17:39:22.181Z,100697.63
2022-12-26T17:41:55.630Z,100706.06
2022-12-26T17:44:40.985Z,100707.00
2022-12-26T17:47:17.840Z,100701.94
2022-12-26T17:49:45.362Z,100704.19
2022-12-26T17:52:14.841Z,100711.00
2022-12-26T17:54:43.643Z,100718.88
2022-12-26T17:57:18.709Z,100720.97
2022-12-26T17:59:46.328Z,100720.72
2022-12-26T18:02:13.976Z,100732.88
2022-12-26T18:04:41.734Z,100737.66
2022-12-26T18:07:13.198Z,100741.88
2022-12-26T18:09:40.778Z,100751.31
2022-12-26T18:12:11.503Z,100738.94
2022-12-26T18:14:38.984Z,100762.28
2022-12-26T18:17:06.741Z,100758.75
2022-12-26T18:19:34.914Z,100763.47
2022-12-26T18:22:02.912Z,100762.16
2022-12-26T18:24:31.058Z,100766.25
2022-12-26T18:26:58.819Z,100761.13
2022-12-26T18:29:27.589Z,100765.75
2022-12-26T18:31:55.112Z,100778.41
2022-12-26T18:34:22.533Z,100763.78
2022-12-26T18:36:50.289Z,100764.72
2022-12-26T18:39:18.296Z,100777.19
2022-12-26T18:41:45.935Z,100767.09
2022-12-26T18:44:15.645Z,100783.84
2022-12-26T18:46:44.503Z,100785.66
2022-12-26T18:49:12.013Z,100790.41
2022-12-26T18:51:39.449Z,100807.13
2022-12-26T18:54:07.027Z,100802.81
2022-12-26T18:56:34.422Z,100803.75
2022-12-26T18:59:01.888Z,100814.09
2022-12-26T19:01:29.414Z,100812.22
2022-12-26T19:03:58.401Z,100816.91
2022-12-26T19:06:27.770Z,100817.19
2022-12-26T19:08:55.982Z,100821.09
2022-12-26T19:11:24.229Z,100833.28
2022-12-26T19:13:52.718Z,100832.53
2022-12-26T19:16:22.915Z,100840.78
2022-12-26T19:18:50.763Z,100846.91
2022-12-26T19:21:19.553Z,100857.03
2022-12-26T19:23:48.342Z,100867.78
2022-12-26T19:26:18.532Z,100870.22
2022-12-26T19:28:50.908Z,100872.16
2022-12-26T19:31:18.420Z,100866.72
2022-12-26T19:33:45.934Z,100865.66
2022-12-26T19:36:13.934Z,100877.69
2022-12-26T19:38:42.969Z,100868.72
2022-12-26T19:41:12.338Z,100886.78
2022-12-26T19:43:39.950Z,100897.06
2022-12-26T19:46:09.616Z,100902.44
2022-12-26T19:48:38.735Z,100914.53
2022-12-26T19:51:09.090Z,100907.56
2022-12-26T19:53:37.983Z,100913.19
2022-12-26T19:56:09.407Z,100925.91
2022-12-26T19:58:37.067Z,100932.44
2022-12-26T20:01:08.741Z,100938.56
2022-12-26T20:03:36.945Z,100935.72
2022-12-26T20:06:09.951Z,100945.91
2022-12-26T20:11:22.890Z,100919.78
2022-12-26T20:13:50.987Z,100919.19
2022-12-26T20:17:04.304Z,100925.28
2022-12-26T20:19:19.995Z,100933.91
2022-12-26T20:21:48.086Z,100944.06
2022-12-26T20:24:16.352Z,100938.25
2022-12-26T20:26:45.538Z,100945.06
2022-12-26T20:29:13.231Z,100954.44
2022-12-26T20:31:42.563Z,100966.06
2022-12-26T20:34:11.248Z,100977.56
2022-12-26T20:36:40.086Z,100975.41
2022-12-26T20:39:11.199Z,100974.47
2022-12-26T20:41:39.158Z,100983.72
2022-12-26T20:44:08.083Z,100985.25
2022-12-26T20:46:36.212Z,100983.06
2022-12-26T20:49:05.396Z,100996.38
2022-12-26T20:51:37.971Z,101008.97
2022-12-26T20:54:06.170Z,101009.47
2022-12-26T20:56:37.598Z,101009.03
2022-12-26T20:59:05.484Z,101009.75
2022-12-26T21:01:35.218Z,101015.50
2022-12-26T21:04:02.890Z,101012.88
2022-12-26T21:06:32.344Z,101013.47
2022-12-26T21:09:00.139Z,101029.53
2022-12-26T21:11:29.460Z,101045.72
2022-12-26T21:13:58.400Z,101036.59
2022-12-26T21:16:29.993Z,101050.22
2022-12-26T21:18:59.486Z,101050.88
2022-12-26T21:21:28.884Z,101054.53
2022-12-26T21:23:59.892Z,101043.94
2022-12-26T21:26:28.213Z,101049.13
2022-12-26T21:28:57.463Z,101055.34
2022-12-26T21:31:25.277Z,101065.81
2022-12-26T21:33:55.348Z,101076.53
2022-12-26T21:36:24.324Z,101070.81
2022-12-26T21:38:54.677Z,101084.38
2022-12-26T21:41:22.995Z,101089.75
2022-12-26T21:43:50.887Z,101094.19
2022-12-26T21:46:20.769Z,101096.09
2022-12-26T21:48:52.323Z,101098.72
2022-12-26T21:51:21.721Z,101111.06
2022-12-26T21:53:50.515Z,101093.50
2022-12-26T21:56:17.897Z,101109.22
2022-12-26T21:59:03.653Z,101106.38
2022-12-26T22:01:31.841Z,101113.22
2022-12-26T22:04:16.878Z,101123.34
2022-12-26T22:06:44.366Z,101122.66
2022-12-26T22:09:15.649Z,101117.56
2022-12-26T22:12:03.997Z,101126.09
2022-12-26T22:14:34.198Z,101124.34
2022-12-26T22:17:01.605Z,101123.66
2022-12-26T22:19:29.265Z,101138.06
2022-12-26T22:21:56.784Z,101141.91
2022-12-26T22:24:25.570Z,101152.03
2022-12-26T22:26:53.535Z,101154.91
2022-12-26T22:29:20.977Z,101164.59
2022-12-26T22:31:48.421Z,101159.75
2022-12-26T22:34:17.096Z,101168.81
2022-12-26T22:36:44.700Z,101188.50
2022-12-26T22:39:17.457Z,101184.06
2022-12-26T22:41:47.557Z,101187.13
2022-12-26T22:44:15.598Z,101203.44
2022-12-26T22:46:43.790Z,101197.88
2022-12-26T22:49:11.590Z,101209.22
2022-12-26T22:51:39.350Z,101207.53
2022-12-26T22:54:06.879Z,101204.56
2022-12-26T22:56:34.838Z,101210.44
2022-12-26T22:59:03.825Z,101210.59
2022-12-26T23:01:31.635Z,101221.66
2022-12-26T23:04:03.942Z,101215.72
2022-12-26T23:06:33.818Z,101214.75
2022-12-26T23:09:03.952Z,101222.31
2022-12-26T23:11:35.302Z,101238.31
2022-12-26T23:14:06.243Z,101237.06
2022-12-26T23:16:39.424Z,101229.66
2022-12-26T23:19:32.772Z,101227.59
2022-12-26T23:22:02.358Z,101232.16
2022-12-26T23:24:32.154Z,101222.38
2022-12-26T23:27:17.417Z,101230.16
2022-12-26T23:30:04.501Z,101231.47
2022-12-26T23:32:32.084Z,101233.72
2022-12-26T23:34:59.503Z,101231.59
2022-12-26T23:37:27.052Z,101232.88
2022-12-26T23:39:54.541Z,101227.97
2022-12-26T23:42:21.985Z,101240.44
2022-12-26T23:44:50.731Z,101248.00
2022-12-26T23:47:18.168Z,101250.03
2022-12-26T23:49:45.621Z,101249.03
2022-12-26T23:52:13.053Z,101246.28
2022-12-26T23:54:40.492Z,101254.34
2022-12-26T23:57:07.947Z,101260.41
2022-12-26T23:59:35.399Z,101250.59
